Time;durP1;ratioP1;P1;durP2;ratioP2;P2;SDS_P1;SDS_P2;PMS_P1;PMS_P2;Temp;Humidity;BMP_temperature;BMP_pressure;BME280_temperature;BME280_humidity;BME280_pressure;Samples;Min_cycle;Max_cycle;Signal;HPM_P1;HPM_P2
2022/07/23 09:50:00;;;;;;;1.03;0.70;;;;;;;;;;5080576;27;20353;-58
2022/07/23 09:52:31;;;;;;;0.45;0.45;;;;;;;;;;5067758;28;20159;-58
2022/07/23 09:55:01;;;;;;;0.28;0.28;;;;;;;;;;5074170;28;20370;-58
2022/07/23 09:57:27;;;;;;;0.40;0.40;;;;;;;;;;5087394;28;20094;-58
2022/07/23 09:59:57;;;;;;;0.30;0.30;;;;;;;;;;5088307;28;20125;-58
2022/07/23 10:02:24;;;;;;;0.40;0.40;;;;;;;;;;5085152;28;20386;-58
2022/07/23 10:04:52;;;;;;;0.38;0.38;;;;;;;;;;5088093;28;20044;-59
2022/07/23 10:07:19;;;;;;;0.40;0.40;;;;;;;;;;5087975;28;20064;-58
2022/07/23 10:09:46;;;;;;;0.22;0.22;;;;;;;;;;5087179;28;20036;-59
2022/07/23 10:12:24;;;;;;;0.40;0.40;;;;;;;;;;5077326;28;20400;-59
2022/07/23 10:14:50;;;;;;;1.20;0.50;;;;;;;;;;5088017;28;20084;-58
2022/07/23 10:17:16;;;;;;;1.30;0.60;;;;;;;;;;5085862;28;20409;-58
2022/07/23 10:19:43;;;;;;;0.40;0.40;;;;;;;;;;5087295;28;20046;-59
2022/07/23 10:22:11;;;;;;;0.57;0.57;;;;;;;;;;5087938;28;20539;-58
2022/07/23 10:24:45;;;;;;;0.40;0.40;;;;;;;;;;5087003;28;20179;-58
2022/07/23 10:27:30;;;;;;;0.40;0.40;;;;;;;;;;5087343;28;20060;-58
2022/07/23 10:30:01;;;;;;;0.95;0.60;;;;;;;;;;5087107;28;20405;-58
2022/07/23 10:32:36;;;;;;;0.20;0.20;;;;;;;;;;5086246;28;20055;-58
2022/07/23 10:35:09;;;;;;;0.47;0.30;;;;;;;;;;5085047;28;20052;-58
2022/07/23 10:37:38;;;;;;;0.52;0.30;;;;;;;;;;5086926;28;20482;-58
2022/07/23 10:40:18;;;;;;;0.30;0.30;;;;;;;;;;5087247;28;20044;-58
2022/07/23 10:42:45;;;;;;;0.30;0.30;;;;;;;;;;5086513;28;20509;-58
2022/07/23 10:45:23;;;;;;;0.30;0.30;;;;;;;;;;5086349;28;20051;-58
2022/07/23 10:47:50;;;;;;;0.25;0.25;;;;;;;;;;5086176;28;20060;-58
2022/07/23 10:50:17;;;;;;;2.90;1.02;;;;;;;;;;5087320;28;20110;-58
2022/07/23 10:53:03;;;;;;;0.20;0.20;;;;;;;;;;5078556;28;20098;-58
2022/07/23 10:55:29;;;;;;;0.47;0.20;;;;;;;;;;5073785;28;20040;-58
2022/07/23 10:57:55;;;;;;;0.20;0.20;;;;;;;;;;5087008;28;20497;-58
2022/07/23 11:00:24;;;;;;;0.38;0.38;;;;;;;;;;5066116;28;20066;-59
2022/07/23 11:02:51;;;;;;;0.40;0.40;;;;;;;;;;5052615;28;20045;-59
2022/07/23 11:05:19;;;;;;;0.20;0.20;;;;;;;;;;5053546;28;20080;-58
2022/07/23 11:08:03;;;;;;;0.40;0.40;;;;;;;;;;5052913;28;20053;-59
2022/07/23 11:10:40;;;;;;;0.50;0.50;;;;;;;;;;5068977;28;20048;-59
2022/07/23 11:13:21;;;;;;;0.50;0.50;;;;;;;;;;5073397;28;20063;-59
2022/07/23 11:16:04;;;;;;;0.90;0.50;;;;;;;;;;5070838;28;20101;-58
2022/07/23 11:18:48;;;;;;;0.20;0.20;;;;;;;;;;5073018;28;20132;-58
2022/07/23 11:21:23;;;;;;;1.40;0.40;;;;;;;;;;5062910;28;20041;-59
2022/07/23 11:24:06;;;;;;;2.08;0.35;;;;;;;;;;5068151;28;20060;-58
2022/07/23 11:26:39;;;;;;;0.93;0.60;;;;;;;;;;5062670;28;20051;-58
2022/07/23 11:29:24;;;;;;;0.30;0.30;;;;;;;;;;5073030;28;20048;-58
2022/07/23 11:31:54;;;;;;;2.78;0.50;;;;;;;;;;5069125;28;20113;-58
2022/07/23 11:34:33;;;;;;;0.40;0.40;;;;;;;;;;5072946;28;20048;-59
2022/07/23 11:37:03;;;;;;;0.43;0.43;;;;;;;;;;5072760;28;20091;-58
2022/07/23 11:39:30;;;;;;;0.75;0.43;;;;;;;;;;5073027;28;20785;-59
2022/07/23 11:41:57;;;;;;;0.40;0.40;;;;;;;;;;5070103;28;20128;-58
2022/07/23 11:44:26;;;;;;;0.40;0.40;;;;;;;;;;5072796;28;20048;-59
2022/07/23 11:46:59;;;;;;;0.52;0.40;;;;;;;;;;5070253;28;20682;-59
2022/07/23 11:49:25;;;;;;;0.40;0.40;;;;;;;;;;5072583;28;20147;-59
2022/07/23 11:52:11;;;;;;;1.35;0.55;;;;;;;;;;5071700;28;20048;-58
2022/07/23 11:54:47;;;;;;;0.60;0.60;;;;;;;;;;5071671;28;20063;-59
2022/07/23 11:57:13;;;;;;;0.40;0.40;;;;;;;;;;5072048;28;20048;-59
2022/07/23 11:59:39;;;;;;;0.85;0.63;;;;;;;;;;5071957;28;20131;-59
2022/07/23 12:02:06;;;;;;;1.02;0.60;;;;;;;;;;5070579;28;20080;-60
2022/07/23 12:04:58;;;;;;;1.92;0.50;;;;;;;;;;5072336;28;20052;-60
2022/07/23 12:07:32;;;;;;;0.90;0.43;;;;;;;;;;5066055;28;20056;-60
2022/07/23 12:10:04;;;;;;;0.70;0.70;;;;;;;;;;5071329;28;20436;-59
2022/07/23 12:12:37;;;;;;;0.63;0.55;;;;;;;;;;5071161;28;20059;-59
2022/07/23 12:15:03;;;;;;;0.50;0.50;;;;;;;;;;5066940;28;20110;-59
2022/07/23 12:17:32;;;;;;;1.20;0.60;;;;;;;;;;5050915;28;20047;-59
2022/07/23 12:19:59;;;;;;;0.75;0.75;;;;;;;;;;5051384;28;20488;-59
2022/07/23 12:22:26;;;;;;;0.68;0.60;;;;;;;;;;5051840;28;20794;-59
2022/07/23 12:25:04;;;;;;;1.48;0.60;;;;;;;;;;5051538;28;20110;-59
2022/07/23 12:27:30;;;;;;;0.50;0.50;;;;;;;;;;5052331;28;20509;-59
2022/07/23 12:29:56;;;;;;;0.82;0.60;;;;;;;;;;5066078;28;20653;-59
2022/07/23 12:32:24;;;;;;;0.50;0.50;;;;;;;;;;5070154;28;20048;-59
2022/07/23 12:34:51;;;;;;;2.42;0.88;;;;;;;;;;5071284;28;20044;-59
2022/07/23 12:37:31;;;;;;;0.98;0.50;;;;;;;;;;5071182;28;20127;-60
2022/07/23 12:39:57;;;;;;;1.40;0.60;;;;;;;;;;5059842;28;20791;-60
2022/07/23 12:42:24;;;;;;;1.25;1.00;;;;;;;;;;5061011;28;20040;-60
2022/07/23 12:45:11;;;;;;;1.35;0.85;;;;;;;;;;5066503;28;20056;-60
2022/07/23 12:47:37;;;;;;;;;;;;;;;;;;5057401;28;20114;-60
2022/07/23 12:50:03;;;;;;;4.17;1.03;;;;;;;;;;5061837;28;19935;-60
2022/07/23 12:52:29;;;;;;;5.40;1.17;;;;;;;;;;5068084;28;20562;-60
2022/07/23 12:54:55;;;;;;;1.35;0.70;;;;;;;;;;5063000;28;20048;-60
2022/07/23 12:57:41;;;;;;;0.55;0.55;;;;;;;;;;5058936;28;20493;-61
2022/07/23 13:00:08;;;;;;;1.17;0.80;;;;;;;;;;5067269;28;20056;-59
2022/07/23 13:02:46;;;;;;;0.95;0.82;;;;;;;;;;5063154;28;20135;-60
2022/07/23 13:05:13;;;;;;;0.75;0.60;;;;;;;;;;5065864;28;20435;-60
2022/07/23 13:07:39;;;;;;;0.63;0.60;;;;;;;;;;5064510;28;20087;-60
2022/07/23 13:10:05;;;;;;;0.60;0.57;;;;;;;;;;5060493;28;20048;-60
2022/07/23 13:12:31;;;;;;;0.70;0.70;;;;;;;;;;5061283;28;20049;-60
2022/07/23 13:14:57;;;;;;;0.95;0.68;;;;;;;;;;5061706;28;20131;-60
2022/07/23 13:17:23;;;;;;;0.77;0.63;;;;;;;;;;5063516;28;20044;-60
2022/07/23 13:19:49;;;;;;;0.80;0.68;;;;;;;;;;5063895;28;20052;-60
2022/07/23 13:22:15;;;;;;;0.70;0.70;;;;;;;;;;5064387;28;20453;-60
2022/07/23 13:24:41;;;;;;;1.50;0.73;;;;;;;;;;5065385;28;20040;-60
2022/07/23 13:27:08;;;;;;;0.60;0.57;;;;;;;;;;5062131;28;20386;-60
2022/07/23 13:29:34;;;;;;;1.90;0.90;;;;;;;;;;5064940;28;20045;-60
2022/07/23 13:32:00;;;;;;;0.75;0.57;;;;;;;;;;5062782;28;20127;-60
2022/07/23 13:34:26;;;;;;;2.45;0.50;;;;;;;;;;5064652;28;20579;-60
2022/07/23 13:36:52;;;;;;;0.95;0.60;;;;;;;;;;5064645;28;20055;-60
2022/07/23 13:39:19;;;;;;;0.60;0.60;;;;;;;;;;5064987;28;20070;-60
2022/07/23 13:41:45;;;;;;;0.90;0.90;;;;;;;;;;5065594;28;20053;-60
2022/07/23 13:44:11;;;;;;;0.50;0.50;;;;;;;;;;5064301;28;20047;-60
2022/07/23 13:46:37;;;;;;;1.20;0.47;;;;;;;;;;5060784;28;20092;-58
2022/07/23 13:49:04;;;;;;;0.50;0.50;;;;;;;;;;5066875;28;20413;-58
2022/07/23 13:51:30;;;;;;;1.90;0.80;;;;;;;;;;5064131;28;20059;-58
2022/07/23 13:53:59;;;;;;;0.70;0.70;;;;;;;;;;5061690;28;20072;-57
2022/07/23 13:56:25;;;;;;;0.70;0.70;;;;;;;;;;5061341;28;20049;-57
2022/07/23 13:58:51;;;;;;;0.40;0.40;;;;;;;;;;5062939;28;20045;-57
2022/07/23 14:01:17;;;;;;;1.05;0.68;;;;;;;;;;5061545;28;20056;-58
2022/07/23 14:03:43;;;;;;;0.88;0.63;;;;;;;;;;5062764;28;20056;-58
2022/07/23 14:06:09;;;;;;;0.90;0.60;;;;;;;;;;5055218;28;20813;-57
2022/07/23 14:08:35;;;;;;;0.55;0.55;;;;;;;;;;5057980;28;20439;-58
2022/07/23 14:11:01;;;;;;;0.55;0.55;;;;;;;;;;5048028;28;20406;-57
2022/07/23 14:13:27;;;;;;;1.42;0.60;;;;;;;;;;5059972;28;20074;-58
2022/07/23 14:15:53;;;;;;;0.82;0.40;;;;;;;;;;5056064;28;20059;-57
2022/07/23 14:18:19;;;;;;;0.70;0.70;;;;;;;;;;5050716;28;20044;-57
2022/07/23 14:20:45;;;;;;;1.48;0.77;;;;;;;;;;5060418;28;20048;-57
2022/07/23 14:23:11;;;;;;;1.35;0.90;;;;;;;;;;5060182;28;20047;-57
2022/07/23 14:25:37;;;;;;;0.65;0.65;;;;;;;;;;5049248;28;20040;-58
2022/07/23 14:28:03;;;;;;;0.73;0.60;;;;;;;;;;5051292;28;20074;-57
2022/07/23 14:30:30;;;;;;;1.00;0.80;;;;;;;;;;5060155;28;20075;-57
2022/07/23 14:32:56;;;;;;;1.35;0.73;;;;;;;;;;5059001;28;20056;-57
2022/07/23 14:35:23;;;;;;;0.80;0.80;;;;;;;;;;5055990;28;20050;-57
2022/07/23 14:37:49;;;;;;;0.80;0.60;;;;;;;;;;5065480;28;20061;-57
2022/07/23 14:40:15;;;;;;;1.15;0.80;;;;;;;;;;5062785;28;20044;-57
2022/07/23 14:42:41;;;;;;;1.65;0.90;;;;;;;;;;5062399;28;20127;-57
2022/07/23 14:45:07;;;;;;;1.38;0.90;;;;;;;;;;5059692;28;20107;-57
2022/07/23 14:47:33;;;;;;;1.10;0.65;;;;;;;;;;5057398;28;20037;-57
2022/07/23 14:49:59;;;;;;;1.00;0.70;;;;;;;;;;5071309;28;20052;-57
2022/07/23 14:52:25;;;;;;;1.40;0.80;;;;;;;;;;5066723;28;20044;-57
2022/07/23 14:54:51;;;;;;;0.52;0.52;;;;;;;;;;5066533;28;20052;-57
2022/07/23 14:57:17;;;;;;;1.55;0.85;;;;;;;;;;5066960;28;20044;-57
2022/07/23 14:59:44;;;;;;;0.93;0.80;;;;;;;;;;5065120;28;20087;-58
2022/07/23 15:02:10;;;;;;;0.60;0.60;;;;;;;;;;5049605;28;20469;-57
2022/07/23 15:04:36;;;;;;;0.82;0.68;;;;;;;;;;5067072;28;20072;-57
2022/07/23 15:07:03;;;;;;;1.95;0.68;;;;;;;;;;5056556;28;20409;-57
2022/07/23 15:09:29;;;;;;;1.33;0.70;;;;;;;;;;5056222;28;20174;-58
2022/07/23 15:11:55;;;;;;;1.35;0.80;;;;;;;;;;5052843;28;20162;-57
2022/07/23 15:14:22;;;;;;;0.68;0.60;;;;;;;;;;5065744;28;20072;-57
2022/07/23 15:16:48;;;;;;;0.98;0.60;;;;;;;;;;5068296;28;20053;-57
2022/07/23 15:19:14;;;;;;;1.85;0.65;;;;;;;;;;5065926;28;20418;-57
2022/07/23 15:21:40;;;;;;;0.98;0.80;;;;;;;;;;5055600;28;20513;-57
2022/07/23 15:24:06;;;;;;;1.42;0.70;;;;;;;;;;5052297;28;20483;-57
2022/07/23 15:26:33;;;;;;;0.60;0.60;;;;;;;;;;5052405;28;20449;-57
2022/07/23 15:28:59;;;;;;;1.05;0.70;;;;;;;;;;5043549;28;20110;-56
2022/07/23 15:31:25;;;;;;;1.27;0.60;;;;;;;;;;5055980;28;20049;-57
2022/07/23 15:33:51;;;;;;;1.05;0.80;;;;;;;;;;5059104;28;20045;-58
2022/07/23 15:36:19;;;;;;;1.27;0.40;;;;;;;;;;5074659;28;20071;-58
2022/07/23 15:38:45;;;;;;;2.05;0.50;;;;;;;;;;5052616;28;20037;-58
2022/07/23 15:41:11;;;;;;;0.50;0.50;;;;;;;;;;5058777;28;20044;-57
2022/07/23 15:43:37;;;;;;;0.70;0.68;;;;;;;;;;5054827;28;20563;-57
2022/07/23 15:46:04;;;;;;;0.70;0.70;;;;;;;;;;5049883;28;20055;-56
2022/07/23 15:48:30;;;;;;;1.20;0.98;;;;;;;;;;5053401;28;20053;-57
2022/07/23 15:50:57;;;;;;;0.40;0.40;;;;;;;;;;5053357;28;20521;-56
2022/07/23 15:53:23;;;;;;;0.73;0.60;;;;;;;;;;5060629;28;20084;-56
2022/07/23 15:55:49;;;;;;;0.82;0.73;;;;;;;;;;5063416;28;20056;-56
2022/07/23 15:58:15;;;;;;;1.58;0.85;;;;;;;;;;5061965;28;20562;-56
2022/07/23 16:00:41;;;;;;;0.70;0.70;;;;;;;;;;5053221;28;20668;-56
2022/07/23 16:03:07;;;;;;;0.65;0.65;;;;;;;;;;5063415;28;20052;-56
2022/07/23 16:05:34;;;;;;;0.75;0.70;;;;;;;;;;5059230;28;20127;-56
2022/07/23 16:08:01;;;;;;;0.73;0.52;;;;;;;;;;5051997;28;20057;-56
2022/07/23 16:10:27;;;;;;;0.65;0.50;;;;;;;;;;5056704;28;20048;-56
2022/07/23 16:12:53;;;;;;;0.50;0.50;;;;;;;;;;5071572;28;20044;-56
2022/07/23 16:15:19;;;;;;;0.80;0.63;;;;;;;;;;5050468;28;20055;-56
2022/07/23 16:17:45;;;;;;;0.50;0.50;;;;;;;;;;5050694;28;20087;-57
2022/07/23 16:20:12;;;;;;;0.70;0.70;;;;;;;;;;5055591;28;20045;-56
2022/07/23 16:22:38;;;;;;;0.45;0.45;;;;;;;;;;5057918;28;20620;-57
2022/07/23 16:25:05;;;;;;;2.15;0.50;;;;;;;;;;5056582;28;20456;-56
2022/07/23 16:27:35;;;;;;;0.60;0.60;;;;;;;;;;5051723;28;20394;-56
2022/07/23 16:30:01;;;;;;;0.63;0.52;;;;;;;;;;5051336;28;20037;-56
2022/07/23 16:32:27;;;;;;;0.52;0.50;;;;;;;;;;5049614;28;20045;-56
2022/07/23 16:34:53;;;;;;;0.43;0.43;;;;;;;;;;5059346;28;20084;-56
2022/07/23 16:37:19;;;;;;;0.77;0.50;;;;;;;;;;5051944;28;20045;-56
2022/07/23 16:39:45;;;;;;;2.38;0.70;;;;;;;;;;5051235;28;20154;-56
2022/07/23 16:42:11;;;;;;;0.50;0.50;;;;;;;;;;5050532;28;20436;-56
2022/07/23 16:44:37;;;;;;;0.93;0.60;;;;;;;;;;5055301;28;20106;-57
2022/07/23 16:47:04;;;;;;;1.55;0.85;;;;;;;;;;5067428;28;20045;-57
2022/07/23 16:49:30;;;;;;;0.85;0.68;;;;;;;;;;5050795;28;20053;-56
2022/07/23 16:51:56;;;;;;;0.80;0.70;;;;;;;;;;5051434;28;20060;-56
2022/07/23 16:54:22;;;;;;;1.13;0.60;;;;;;;;;;5062098;28;20049;-56
2022/07/23 16:56:49;;;;;;;1.95;0.60;;;;;;;;;;5058687;28;20052;-56
2022/07/23 16:59:15;;;;;;;3.90;1.02;;;;;;;;;;5050245;28;20052;-55
2022/07/23 17:01:41;;;;;;;0.75;0.75;;;;;;;;;;5062609;28;20049;-56
2022/07/23 17:04:07;;;;;;;0.73;0.63;;;;;;;;;;5064617;28;20508;-56
2022/07/23 17:06:34;;;;;;;1.08;0.73;;;;;;;;;;5051717;28;20098;-56
2022/07/23 17:09:00;;;;;;;0.60;0.60;;;;;;;;;;5051251;28;20167;-56
2022/07/23 17:11:26;;;;;;;1.98;0.90;;;;;;;;;;5063586;28;20080;-57
2022/07/23 17:13:52;;;;;;;2.53;0.88;;;;;;;;;;5061040;28;20405;-57
2022/07/23 17:16:18;;;;;;;1.35;0.90;;;;;;;;;;5055403;28;20044;-56
2022/07/23 17:18:44;;;;;;;0.85;0.85;;;;;;;;;;5058011;28;20414;-56
2022/07/23 17:21:10;;;;;;;1.27;0.85;;;;;;;;;;5057177;28;20382;-56
2022/07/23 17:23:36;;;;;;;0.75;0.73;;;;;;;;;;5050883;28;20071;-56
2022/07/23 17:26:03;;;;;;;1.13;0.85;;;;;;;;;;5051531;28;20045;-56
2022/07/23 17:28:29;;;;;;;0.68;0.68;;;;;;;;;;5060101;28;20037;-56
2022/07/23 17:30:55;;;;;;;0.82;0.80;;;;;;;;;;5048867;28;20136;-56
2022/07/23 17:33:21;;;;;;;1.25;0.90;;;;;;;;;;5050167;28;20044;-56
2022/07/23 17:35:52;;;;;;;0.75;0.70;;;;;;;;;;5050508;28;20056;-56
2022/07/23 17:38:18;;;;;;;0.90;0.85;;;;;;;;;;5052756;28;20066;-56
2022/07/23 17:40:44;;;;;;;1.38;0.90;;;;;;;;;;5062414;28;20047;-56
2022/07/23 17:43:10;;;;;;;0.80;0.70;;;;;;;;;;5069928;28;20083;-56
2022/07/23 17:45:36;;;;;;;1.00;0.70;;;;;;;;;;5055637;28;20049;-56
2022/07/23 17:48:02;;;;;;;0.60;0.60;;;;;;;;;;5050167;28;20401;-56
2022/07/23 17:50:29;;;;;;;0.70;0.70;;;;;;;;;;5049945;28;20052;-57
2022/07/23 17:52:55;;;;;;;0.93;0.88;;;;;;;;;;5041980;28;20056;-56
2022/07/23 17:55:22;;;;;;;1.15;1.05;;;;;;;;;;5060717;28;20052;-56
2022/07/23 17:57:49;;;;;;;0.80;0.70;;;;;;;;;;5066564;28;20501;-57
2022/07/23 18:00:17;;;;;;;0.60;0.60;;;;;;;;;;5053551;28;20060;-56
2022/07/23 18:02:43;;;;;;;0.60;0.60;;;;;;;;;;5055806;28;20041;-57
2022/07/23 18:05:09;;;;;;;0.60;0.50;;;;;;;;;;5058697;28;20119;-57
2022/07/23 18:07:35;;;;;;;1.05;0.80;;;;;;;;;;5054979;28;20052;-57
2022/07/23 18:10:02;;;;;;;0.60;0.60;;;;;;;;;;5051524;28;20474;-57
2022/07/23 18:12:28;;;;;;;0.60;0.60;;;;;;;;;;5053300;28;20073;-57
2022/07/23 18:14:54;;;;;;;0.75;0.75;;;;;;;;;;5053268;28;20118;-56
2022/07/23 18:17:21;;;;;;;1.52;0.80;;;;;;;;;;5053261;28;20049;-56
2022/07/23 18:19:47;;;;;;;1.02;0.63;;;;;;;;;;5082360;28;20497;-57
2022/07/23 18:22:13;;;;;;;1.05;0.90;;;;;;;;;;5057500;28;20036;-57
2022/07/23 18:24:39;;;;;;;0.63;0.60;;;;;;;;;;5057854;28;20044;-57
2022/07/23 18:27:05;;;;;;;0.50;0.40;;;;;;;;;;5057415;28;20037;-57
2022/07/23 18:29:32;;;;;;;1.05;0.60;;;;;;;;;;5055008;28;20037;-56
2022/07/23 18:31:58;;;;;;;0.60;0.60;;;;;;;;;;5063599;28;20134;-56
2022/07/23 18:34:24;;;;;;;1.30;0.75;;;;;;;;;;5058679;28;20076;-56
2022/07/23 18:36:50;;;;;;;0.35;0.35;;;;;;;;;;5053749;28;20049;-57
2022/07/23 18:39:16;;;;;;;0.38;0.38;;;;;;;;;;5053935;28;20118;-57
2022/07/23 18:41:42;;;;;;;0.63;0.57;;;;;;;;;;5052965;28;20041;-56
2022/07/23 18:44:08;;;;;;;0.57;0.50;;;;;;;;;;5070670;28;20045;-56
2022/07/23 18:46:34;;;;;;;0.60;0.60;;;;;;;;;;5055037;28;20553;-57
2022/07/23 18:49:01;;;;;;;0.40;0.40;;;;;;;;;;5072538;28;20057;-57
2022/07/23 18:51:27;;;;;;;0.60;0.60;;;;;;;;;;5053085;28;20543;-56
2022/07/23 18:53:53;;;;;;;0.52;0.50;;;;;;;;;;5052629;28;20397;-56
2022/07/23 18:56:19;;;;;;;0.85;0.65;;;;;;;;;;5070945;28;20126;-56
2022/07/23 18:58:46;;;;;;;0.63;0.45;;;;;;;;;;5054495;28;20067;-56
2022/07/23 19:01:12;;;;;;;0.45;0.45;;;;;;;;;;5051624;28;20045;-57
2022/07/23 19:03:38;;;;;;;0.40;0.40;;;;;;;;;;5058862;28;20051;-57
2022/07/23 19:06:04;;;;;;;0.70;0.70;;;;;;;;;;5073329;28;20083;-57
2022/07/23 19:08:31;;;;;;;0.95;0.77;;;;;;;;;;5072838;28;20036;-56
2022/07/23 19:10:57;;;;;;;0.60;0.60;;;;;;;;;;5062899;28;20481;-57
2022/07/23 19:13:23;;;;;;;0.50;0.50;;;;;;;;;;5052622;28;20057;-56
2022/07/23 19:15:49;;;;;;;0.65;0.40;;;;;;;;;;5054180;28;20799;-58
2022/07/23 19:18:16;;;;;;;0.50;0.50;;;;;;;;;;5054318;28;20524;-57
2022/07/23 19:20:42;;;;;;;0.68;0.68;;;;;;;;;;5065292;28;20115;-57
2022/07/23 19:23:08;;;;;;;0.30;0.30;;;;;;;;;;5069143;28;20052;-57
2022/07/23 19:25:34;;;;;;;0.68;0.60;;;;;;;;;;5061963;28;20045;-57
2022/07/23 19:28:00;;;;;;;0.75;0.75;;;;;;;;;;5054979;28;20410;-57
2022/07/23 19:30:26;;;;;;;0.47;0.47;;;;;;;;;;5050061;28;20091;-56
2022/07/23 19:32:52;;;;;;;0.50;0.50;;;;;;;;;;5055245;28;20048;-57
2022/07/23 19:35:19;;;;;;;0.45;0.45;;;;;;;;;;5056136;28;20044;-57
2022/07/23 19:37:45;;;;;;;0.75;0.70;;;;;;;;;;5050936;28;20588;-57
2022/07/23 19:40:11;;;;;;;1.00;0.63;;;;;;;;;;5050968;28;20513;-56
2022/07/23 19:42:37;;;;;;;0.70;0.70;;;;;;;;;;5056345;28;20048;-56
2022/07/23 19:45:07;;;;;;;0.50;0.50;;;;;;;;;;5051009;28;20049;-56
2022/07/23 19:47:33;;;;;;;0.47;0.47;;;;;;;;;;5052669;28;20132;-56
2022/07/23 19:49:59;;;;;;;0.60;0.57;;;;;;;;;;5060492;28;20067;-56
2022/07/23 19:52:25;;;;;;;0.80;0.75;;;;;;;;;;5053997;28;20048;-57
2022/07/23 19:54:52;;;;;;;0.50;0.50;;;;;;;;;;5052916;28;20086;-57
2022/07/23 19:57:18;;;;;;;0.73;0.73;;;;;;;;;;5061371;28;20048;-57
2022/07/23 19:59:44;;;;;;;0.70;0.70;;;;;;;;;;5062698;28;20041;-56
2022/07/23 20:02:10;;;;;;;0.50;0.50;;;;;;;;;;5049504;28;20047;-56
2022/07/23 20:04:36;;;;;;;0.98;0.68;;;;;;;;;;5050517;28;20128;-56
2022/07/23 20:07:02;;;;;;;0.40;0.40;;;;;;;;;;5051256;28;20119;-56
2022/07/23 20:09:28;;;;;;;0.60;0.50;;;;;;;;;;5059164;28;20098;-56
2022/07/23 20:11:54;;;;;;;0.70;0.70;;;;;;;;;;5065632;28;20045;-57
2022/07/23 20:14:20;;;;;;;0.50;0.47;;;;;;;;;;5065951;28;20532;-58
2022/07/23 20:16:48;;;;;;;0.60;0.60;;;;;;;;;;5061203;28;20837;-58
2022/07/23 20:19:14;;;;;;;0.50;0.50;;;;;;;;;;5068397;28;20562;-57
2022/07/23 20:21:45;;;;;;;0.50;0.50;;;;;;;;;;5068082;28;20105;-57
2022/07/23 20:24:17;;;;;;;0.55;0.50;;;;;;;;;;5068766;28;20127;-58
2022/07/23 20:26:45;;;;;;;0.80;0.80;;;;;;;;;;5065489;28;20059;-58
2022/07/23 20:29:11;;;;;;;1.10;0.93;;;;;;;;;;5068618;28;20073;-58
2022/07/23 20:31:37;;;;;;;0.60;0.50;;;;;;;;;;5065182;28;20044;-57
2022/07/23 20:34:03;;;;;;;0.57;0.57;;;;;;;;;;5049999;28;20040;-57
2022/07/23 20:36:30;;;;;;;1.05;0.77;;;;;;;;;;5068038;28;20051;-57
2022/07/23 20:38:56;;;;;;;0.50;0.50;;;;;;;;;;5063930;28;20067;-57
2022/07/23 20:41:22;;;;;;;0.93;0.70;;;;;;;;;;5065998;28;20044;-57
2022/07/23 20:43:48;;;;;;;0.75;0.70;;;;;;;;;;5063437;28;20044;-57
2022/07/23 20:46:14;;;;;;;0.93;0.60;;;;;;;;;;5061236;28;20055;-58
2022/07/23 20:48:40;;;;;;;0.75;0.75;;;;;;;;;;5066001;28;20055;-58
2022/07/23 20:51:06;;;;;;;0.70;0.70;;;;;;;;;;5069113;28;20049;-58
2022/07/23 20:53:32;;;;;;;1.05;0.65;;;;;;;;;;5066022;28;20056;-57
2022/07/23 20:55:58;;;;;;;0.50;0.50;;;;;;;;;;5062568;28;20051;-58
2022/07/23 20:58:25;;;;;;;0.88;0.65;;;;;;;;;;5066144;28;20040;-57
2022/07/23 21:00:51;;;;;;;0.68;0.65;;;;;;;;;;5062809;28;20587;-57
2022/07/23 21:03:17;;;;;;;0.60;0.60;;;;;;;;;;5061758;28;20099;-57
2022/07/23 21:05:43;;;;;;;0.95;0.70;;;;;;;;;;5065449;28;20062;-57
2022/07/23 21:08:09;;;;;;;0.50;0.50;;;;;;;;;;5068744;28;20134;-57
2022/07/23 21:10:36;;;;;;;0.52;0.52;;;;;;;;;;5052622;28;20072;-57
2022/07/23 21:13:02;;;;;;;0.88;0.80;;;;;;;;;;5068313;28;20044;-57
2022/07/23 21:15:28;;;;;;;0.98;0.63;;;;;;;;;;5050851;28;20052;-57
2022/07/23 21:17:54;;;;;;;0.95;0.65;;;;;;;;;;5049786;28;20044;-57
2022/07/23 21:20:20;;;;;;;0.50;0.50;;;;;;;;;;5050954;28;20057;-57
2022/07/23 21:22:46;;;;;;;0.90;0.70;;;;;;;;;;5051672;28;20572;-57
2022/07/23 21:25:13;;;;;;;0.70;0.70;;;;;;;;;;5069783;28;20052;-57
2022/07/23 21:27:40;;;;;;;1.00;0.75;;;;;;;;;;5056217;28;20481;-57
2022/07/23 21:30:07;;;;;;;0.75;0.60;;;;;;;;;;5049775;28;20084;-57
2022/07/23 21:32:33;;;;;;;0.60;0.60;;;;;;;;;;5049250;28;20129;-57
2022/07/23 21:34:59;;;;;;;1.42;1.05;;;;;;;;;;5061606;28;20521;-58
2022/07/23 21:37:25;;;;;;;0.50;0.50;;;;;;;;;;5050587;28;20555;-57
2022/07/23 21:39:51;;;;;;;0.75;0.75;;;;;;;;;;5056113;28;20397;-57
2022/07/23 21:42:17;;;;;;;0.73;0.73;;;;;;;;;;5052596;28;20120;-58
2022/07/23 21:44:43;;;;;;;0.60;0.60;;;;;;;;;;5051002;28;20086;-59
2022/07/23 21:47:09;;;;;;;0.80;0.70;;;;;;;;;;5048622;28;20044;-57
2022/07/23 21:49:35;;;;;;;0.70;0.70;;;;;;;;;;5058141;28;20061;-58
2022/07/23 21:52:01;;;;;;;1.08;0.63;;;;;;;;;;5061314;28;20044;-57
2022/07/23 21:54:27;;;;;;;0.73;0.50;;;;;;;;;;5056500;28;20044;-57
2022/07/23 21:56:53;;;;;;;0.73;0.70;;;;;;;;;;5056542;28;20049;-57
2022/07/23 21:59:19;;;;;;;0.60;0.60;;;;;;;;;;5061114;28;20084;-58
2022/07/23 22:01:45;;;;;;;0.70;0.70;;;;;;;;;;5062547;28;20048;-58
2022/07/23 22:04:11;;;;;;;0.70;0.65;;;;;;;;;;5064578;28;20114;-57
2022/07/23 22:06:37;;;;;;;0.90;0.77;;;;;;;;;;5067006;28;20048;-57
2022/07/23 22:09:04;;;;;;;0.70;0.70;;;;;;;;;;5067611;28;20036;-58
2022/07/23 22:11:30;;;;;;;1.02;0.75;;;;;;;;;;5063949;28;20586;-57
2022/07/23 22:13:56;;;;;;;0.63;0.60;;;;;;;;;;5063780;28;20661;-57
2022/07/23 22:16:22;;;;;;;0.80;0.63;;;;;;;;;;5060111;28;20894;-58
2022/07/23 22:18:48;;;;;;;0.57;0.55;;;;;;;;;;5063362;28;20054;-58
2022/07/23 22:21:14;;;;;;;0.85;0.50;;;;;;;;;;5054073;28;20136;-58
2022/07/23 22:23:40;;;;;;;0.68;0.65;;;;;;;;;;5062806;28;20048;-57
2022/07/23 22:26:07;;;;;;;0.70;0.70;;;;;;;;;;5063692;28;20520;-57
2022/07/23 22:28:33;;;;;;;1.25;0.60;;;;;;;;;;5067370;28;20072;-57
2022/07/23 22:31:00;;;;;;;0.70;0.68;;;;;;;;;;5057327;28;20053;-58
2022/07/23 22:33:26;;;;;;;0.60;0.60;;;;;;;;;;5060387;28;20107;-57
2022/07/23 22:35:52;;;;;;;3.00;0.95;;;;;;;;;;5053921;28;20080;-57
2022/07/23 22:38:18;;;;;;;0.80;0.80;;;;;;;;;;5060990;28;20047;-58
2022/07/23 22:40:44;;;;;;;0.70;0.70;;;;;;;;;;5051671;28;20047;-57
2022/07/23 22:43:10;;;;;;;0.63;0.63;;;;;;;;;;5059116;28;20080;-57
2022/07/23 22:45:36;;;;;;;1.08;0.70;;;;;;;;;;5062522;28;20048;-57
2022/07/23 22:48:02;;;;;;;2.05;0.60;;;;;;;;;;5063303;28;20052;-57
2022/07/23 22:50:28;;;;;;;0.98;0.70;;;;;;;;;;5064397;28;20486;-58
2022/07/23 22:52:54;;;;;;;1.05;0.60;;;;;;;;;;5064653;28;20087;-57
2022/07/23 22:55:20;;;;;;;0.70;0.70;;;;;;;;;;5055033;28;20453;-57
2022/07/23 22:57:46;;;;;;;0.65;0.65;;;;;;;;;;5066279;28;20408;-57
2022/07/23 23:00:13;;;;;;;1.23;0.70;;;;;;;;;;5069382;28;20557;-57
2022/07/23 23:02:39;;;;;;;0.68;0.65;;;;;;;;;;5069767;28;20649;-57
2022/07/23 23:05:05;;;;;;;0.65;0.65;;;;;;;;;;5068980;28;20044;-57
2022/07/23 23:07:31;;;;;;;1.55;0.80;;;;;;;;;;5069832;28;20517;-57
2022/07/23 23:09:57;;;;;;;1.05;0.77;;;;;;;;;;5069047;28;20678;-57
2022/07/23 23:12:23;;;;;;;0.70;0.70;;;;;;;;;;5063510;28;20401;-57
2022/07/23 23:14:49;;;;;;;0.75;0.70;;;;;;;;;;5052678;28;20059;-57
2022/07/23 23:17:15;;;;;;;0.70;0.70;;;;;;;;;;5056529;28;20045;-57
2022/07/23 23:19:41;;;;;;;0.55;0.55;;;;;;;;;;5067310;28;20040;-57
2022/07/23 23:22:07;;;;;;;0.50;0.50;;;;;;;;;;5067073;28;20125;-57
2022/07/23 23:24:33;;;;;;;0.80;0.80;;;;;;;;;;5059481;28;20052;-57
2022/07/23 23:26:59;;;;;;;1.40;0.95;;;;;;;;;;5070351;28;20053;-57
2022/07/23 23:29:25;;;;;;;0.85;0.82;;;;;;;;;;5063687;28;20156;-57
2022/07/23 23:31:51;;;;;;;0.82;0.70;;;;;;;;;;5049263;28;20402;-57
2022/07/23 23:34:18;;;;;;;1.48;0.57;;;;;;;;;;5051349;28;20079;-57
2022/07/23 23:36:44;;;;;;;0.60;0.60;;;;;;;;;;5051069;28;20163;-57
2022/07/23 23:39:10;;;;;;;0.90;0.88;;;;;;;;;;5051065;28;20063;-57
2022/07/23 23:41:36;;;;;;;0.80;0.80;;;;;;;;;;5050862;28;20502;-57
2022/07/23 23:44:02;;;;;;;0.70;0.60;;;;;;;;;;5064014;28;20041;-57
2022/07/23 23:46:28;;;;;;;0.65;0.63;;;;;;;;;;5065777;28;20151;-58
2022/07/23 23:48:54;;;;;;;0.63;0.57;;;;;;;;;;5068511;28;20063;-57
2022/07/23 23:51:20;;;;;;;0.70;0.70;;;;;;;;;;5050868;28;20509;-57
2022/07/23 23:53:46;;;;;;;0.50;0.50;;;;;;;;;;5050451;28;20128;-57
2022/07/23 23:56:12;;;;;;;0.60;0.60;;;;;;;;;;5049818;28;20068;-58
2022/07/23 23:58:38;;;;;;;1.05;0.70;;;;;;;;;;5050968;28;20095;-57
